createdAt,value
2018-08-23T00:02:06.051Z,11.87
2018-08-23T00:04:33.214Z,10.07
2018-08-23T00:07:00.768Z,12.07
2018-08-23T00:09:29.706Z,10.40
2018-08-23T00:11:57.011Z,15.50
2018-08-23T00:14:24.161Z,14.23
2018-08-23T00:16:51.312Z,12.27
2018-08-23T00:19:18.901Z,12.33
2018-08-23T00:21:47.167Z,13.87
2018-08-23T00:24:17.488Z,11.30
2018-08-23T00:26:47.213Z,12.97
2018-08-23T00:29:20.262Z,10.23
2018-08-23T00:31:50.413Z,15.80
2018-08-23T00:34:17.560Z,15.17
2018-08-23T00:36:44.680Z,11.60
2018-08-23T00:39:11.793Z,9.27
2018-08-23T00:41:40.219Z,12.27
2018-08-23T00:44:07.327Z,9.77
2018-08-23T00:46:34.487Z,17.23
2018-08-23T00:49:01.610Z,11.03
2018-08-23T00:51:28.795Z,11.83
2018-08-23T00:54:01.696Z,12.50
2018-08-23T00:56:28.813Z,9.73
2018-08-23T00:59:03.447Z,15.47
2018-08-23T01:01:31.316Z,10.93
2018-08-23T01:03:58.447Z,14.90
2018-08-23T01:06:38.937Z,12.00
2018-08-23T01:09:06.971Z,12.27
2018-08-23T01:11:34.142Z,12.87
2018-08-23T01:14:01.254Z,10.97
2018-08-23T01:16:28.418Z,13.93
2018-08-23T01:19:00.153Z,13.13
2018-08-23T01:21:27.297Z,15.83
2018-08-23T01:23:54.417Z,12.40
2018-08-23T01:26:21.594Z,14.63
2018-08-23T01:28:48.745Z,18.20
2018-08-23T01:31:23.266Z,17.10
2018-08-23T01:33:53.085Z,13.00
2018-08-23T01:36:29.805Z,17.27
2018-08-23T01:38:56.918Z,13.53
2018-08-23T01:41:24.047Z,14.07
2018-08-23T01:43:51.202Z,16.50
2018-08-23T01:46:18.349Z,16.87
2018-08-23T01:48:51.936Z,18.67
2018-08-23T01:51:19.082Z,11.80
2018-08-23T01:53:53.068Z,18.37
2018-08-23T01:56:20.222Z,15.00
2018-08-23T01:58:47.375Z,24.43
2018-08-23T02:01:18.019Z,15.27
2018-08-23T02:03:45.466Z,18.90
2018-08-23T02:06:12.613Z,12.93
2018-08-23T02:08:41.280Z,21.67
2018-08-23T02:11:08.434Z,16.30
2018-08-23T02:13:35.563Z,19.00
2018-08-23T02:16:03.481Z,15.57
2018-08-23T02:18:35.072Z,18.80
2018-08-23T02:21:07.961Z,14.13
2018-08-23T02:23:45.165Z,17.33
2018-08-23T02:26:12.694Z,15.60
2018-08-23T02:28:42.469Z,23.67
2018-08-23T02:31:09.639Z,16.33
2018-08-23T02:33:36.760Z,19.77
2018-08-23T02:36:27.744Z,19.03
2018-08-23T02:39:10.106Z,17.87
2018-08-23T02:41:40.366Z,23.03
2018-08-23T02:44:07.530Z,18.53
2018-08-23T02:46:34.689Z,26.60
2018-08-23T02:49:02.236Z,17.73
2018-08-23T02:51:37.647Z,24.37
2018-08-23T02:54:04.829Z,25.03
2018-08-23T02:56:32.046Z,21.20
2018-08-23T02:59:03.782Z,20.97
2018-08-23T03:01:33.050Z,24.77
2018-08-23T03:04:07.139Z,17.97
2018-08-23T03:06:38.834Z,22.67
2018-08-23T03:09:06.880Z,19.83
2018-08-23T03:11:35.897Z,20.20
2018-08-23T03:14:03.210Z,23.00
2018-08-23T03:16:42.037Z,20.53
2018-08-23T03:19:09.181Z,25.33
2018-08-23T03:21:36.367Z,16.97
2018-08-23T03:24:03.559Z,24.17
2018-08-23T03:26:30.705Z,16.13
2018-08-23T03:28:57.890Z,26.33
2018-08-23T03:31:25.067Z,24.97
2018-08-23T03:33:52.216Z,23.30
2018-08-23T03:36:19.414Z,19.37
2018-08-23T03:38:46.542Z,23.57
2018-08-23T03:41:13.709Z,17.00
2018-08-23T03:43:40.852Z,26.27
2018-08-23T03:46:07.996Z,21.13
2018-08-23T03:48:35.171Z,23.90
2018-08-23T03:51:02.305Z,18.43
2018-08-23T03:54:12.371Z,26.27
2018-08-23T03:56:42.097Z,21.60
2018-08-23T03:59:09.224Z,18.83
2018-08-23T04:01:36.406Z,14.67
2018-08-23T04:04:03.558Z,24.50
2018-08-23T04:06:31.614Z,27.67
2018-08-23T04:08:58.758Z,22.03
2018-08-23T04:11:29.944Z,22.77
2018-08-23T04:13:57.066Z,21.07
2018-08-23T04:16:25.587Z,17.87
2018-08-23T04:18:52.945Z,23.27
2018-08-23T04:21:20.101Z,18.67
2018-08-23T04:23:47.311Z,25.77
2018-08-23T04:26:14.471Z,21.87
2018-08-23T04:28:45.626Z,30.70
2018-08-23T04:31:12.774Z,21.83
2018-08-23T04:33:39.917Z,20.50
2018-08-23T04:36:20.602Z,19.13
2018-08-23T04:38:54.449Z,24.17
2018-08-23T04:41:21.582Z,23.90
2018-08-23T04:43:49.006Z,26.63
2018-08-23T04:46:20.712Z,20.33
2018-08-23T04:48:47.789Z,17.27
2018-08-23T04:51:14.857Z,40.27
2018-08-23T04:53:41.970Z,56.47
2018-08-23T04:56:09.049Z,58.83
2018-08-23T04:58:36.125Z,38.37
2018-08-23T05:01:03.554Z,26.67
2018-08-23T05:03:30.638Z,18.63
2018-08-23T05:05:57.708Z,25.83
2018-08-23T05:08:24.789Z,23.90
2018-08-23T05:10:51.872Z,22.63
2018-08-23T05:13:18.953Z,23.40
2018-08-23T05:15:46.054Z,18.17
2018-08-23T05:18:13.157Z,16.10
2018-08-23T05:20:40.238Z,19.23
2018-08-23T05:23:07.687Z,23.60
2018-08-23T05:25:34.737Z,17.53
2018-08-23T05:28:11.543Z,20.77
2018-08-23T05:30:38.677Z,21.30
2018-08-23T05:33:10.365Z,21.07
2018-08-23T05:35:37.557Z,20.00
2018-08-23T05:38:06.353Z,25.17
2018-08-23T05:40:39.237Z,29.37
2018-08-23T05:43:06.322Z,16.97
2018-08-23T05:45:39.193Z,22.53
2018-08-23T05:48:29.957Z,20.93
2018-08-23T05:50:57.810Z,21.90
2018-08-23T05:53:24.900Z,18.23
2018-08-23T05:55:53.549Z,23.93
2018-08-23T05:58:24.473Z,22.40
2018-08-23T06:00:51.557Z,20.83
2018-08-23T06:03:18.646Z,20.97
2018-08-23T06:05:51.101Z,27.70
2018-08-23T06:08:18.200Z,17.60
2018-08-23T06:10:47.325Z,21.93
2018-08-23T06:13:14.894Z,24.10
2018-08-23T06:15:47.961Z,19.17
2018-08-23T06:18:16.670Z,23.30
2018-08-23T06:20:43.813Z,19.93
2018-08-23T06:23:16.910Z,23.30
2018-08-23T06:25:44.316Z,21.17
2018-08-23T06:28:16.126Z,19.80
2018-08-23T06:30:43.634Z,17.63
2018-08-23T06:33:10.989Z,21.03
2018-08-23T06:35:41.094Z,18.77
2018-08-23T06:38:08.170Z,22.03
2018-08-23T06:40:36.046Z,18.60
2018-08-23T06:43:04.969Z,17.87
2018-08-23T06:45:32.198Z,15.40
2018-08-23T06:48:01.070Z,23.60
2018-08-23T06:50:28.224Z,17.20
2018-08-23T06:52:55.361Z,15.43
2018-08-23T06:55:27.131Z,21.87
2018-08-23T06:58:00.137Z,21.53
2018-08-23T07:00:27.700Z,20.00
2018-08-23T07:02:54.955Z,18.40
2018-08-23T07:05:22.367Z,25.13
2018-08-23T07:07:49.690Z,16.80
2018-08-23T07:10:16.836Z,17.43
2018-08-23T07:12:44.017Z,15.73
2018-08-23T07:15:11.226Z,24.83
2018-08-23T07:17:38.403Z,17.67
2018-08-23T07:20:11.508Z,21.43
2018-08-23T07:22:38.633Z,21.30
2018-08-23T07:25:10.752Z,32.07
2018-08-23T07:27:37.879Z,18.60
2018-08-23T07:30:10.060Z,24.87
2018-08-23T07:32:39.038Z,25.20
2018-08-23T07:35:12.246Z,24.83
2018-08-23T07:37:40.633Z,26.60
2018-08-23T07:40:09.410Z,28.20
2018-08-23T07:42:37.282Z,21.40
2018-08-23T07:45:04.799Z,27.30
2018-08-23T07:47:36.949Z,19.83
2018-08-23T07:50:04.815Z,29.77
2018-08-23T07:52:32.414Z,18.40
2018-08-23T07:55:05.668Z,24.57
2018-08-23T07:57:33.925Z,22.03
2018-08-23T08:00:02.746Z,23.60
2018-08-23T08:02:30.173Z,20.83
2018-08-23T08:04:57.847Z,23.83
2018-08-23T08:07:25.930Z,23.50
2018-08-23T08:09:53.061Z,23.33
2018-08-23T08:12:25.986Z,17.27
2018-08-23T08:14:53.170Z,21.40
2018-08-23T08:17:29.198Z,26.50
2018-08-23T08:19:57.649Z,19.83
2018-08-23T08:22:24.786Z,19.67
2018-08-23T08:25:00.361Z,18.00
2018-08-23T08:27:28.034Z,25.43
2018-08-23T08:29:55.106Z,19.80
2018-08-23T08:32:22.197Z,26.50
2018-08-23T08:34:49.278Z,26.23
2018-08-23T08:37:16.385Z,21.40
2018-08-23T08:39:43.473Z,24.27
2018-08-23T08:42:10.559Z,18.50
2018-08-23T08:44:37.633Z,19.83
2018-08-23T08:47:10.830Z,26.17
2018-08-23T08:49:37.901Z,24.67
2018-08-23T08:52:04.977Z,23.77
2018-08-23T08:54:32.078Z,28.73
2018-08-23T08:56:59.241Z,29.57
2018-08-23T08:59:28.161Z,32.50
2018-08-23T09:01:55.258Z,29.70
2018-08-23T09:04:28.343Z,33.17
2018-08-23T09:06:55.441Z,29.27
2018-08-23T09:09:34.045Z,31.20
2018-08-23T09:12:06.809Z,25.17
2018-08-23T09:14:34.493Z,33.13
2018-08-23T09:17:17.609Z,27.97
2018-08-23T09:19:57.293Z,27.00
2018-08-23T09:22:24.360Z,26.83
2018-08-23T09:24:51.442Z,31.23
2018-08-23T09:27:18.662Z,23.40
2018-08-23T09:29:45.680Z,25.87
2018-08-23T09:32:30.223Z,19.73
2018-08-23T09:34:57.894Z,25.80
2018-08-23T09:37:25.750Z,18.47
2018-08-23T09:39:52.843Z,24.70
2018-08-23T09:42:19.941Z,20.40
2018-08-23T09:44:59.841Z,20.10
2018-08-23T09:47:27.458Z,26.73
2018-08-23T09:49:54.771Z,25.67
2018-08-23T09:52:26.453Z,23.77
2018-08-23T09:54:53.426Z,22.00
2018-08-23T09:57:20.576Z,28.50
2018-08-23T09:59:52.241Z,22.70
2018-08-23T10:02:25.185Z,22.43
2018-08-23T10:04:54.174Z,26.47
2018-08-23T10:07:27.742Z,21.77
2018-08-23T10:10:00.548Z,24.60
2018-08-23T10:12:33.457Z,19.10
2018-08-23T10:15:06.409Z,18.43
2018-08-23T10:17:39.334Z,20.27
2018-08-23T10:20:12.118Z,24.00
2018-08-23T10:22:45.233Z,23.03
2018-08-23T10:25:30.026Z,20.67
2018-08-23T10:27:57.785Z,19.83
2018-08-23T10:30:25.342Z,20.60
2018-08-23T10:32:52.465Z,22.40
2018-08-23T10:35:19.628Z,14.03
2018-08-23T10:37:46.746Z,19.33
2018-08-23T10:40:13.850Z,16.37
2018-08-23T10:42:40.949Z,21.23
2018-08-23T10:45:08.070Z,16.63
2018-08-23T10:47:46.053Z,13.23
2018-08-23T10:50:13.345Z,25.73
2018-08-23T10:52:40.440Z,16.20
2018-08-23T10:55:07.537Z,18.43
2018-08-23T10:57:34.619Z,17.97
2018-08-23T11:00:01.708Z,20.80
2018-08-23T11:02:28.798Z,17.30
2018-08-23T11:04:55.913Z,23.77
2018-08-23T11:07:27.628Z,19.57
2018-08-23T11:10:00.555Z,21.43
2018-08-23T11:12:33.696Z,18.00
2018-08-23T11:15:05.399Z,25.70
2018-08-23T11:17:38.438Z,14.27
2018-08-23T11:20:11.290Z,16.93
2018-08-23T11:22:40.386Z,19.37
2018-08-23T11:25:07.506Z,15.13
2018-08-23T11:27:34.598Z,15.23
2018-08-23T11:30:01.803Z,15.83
2018-08-23T11:32:28.794Z,14.27
2018-08-23T11:34:56.018Z,18.17
2018-08-23T11:37:23.151Z,17.17
2018-08-23T11:39:50.318Z,14.57
2018-08-23T11:42:17.492Z,13.70
2018-08-23T11:44:44.590Z,16.00
2018-08-23T11:47:11.757Z,12.93
2018-08-23T11:49:38.924Z,14.30
2018-08-23T11:52:06.093Z,10.37
2018-08-23T11:54:33.254Z,11.20
2018-08-23T11:57:00.391Z,7.67
2018-08-23T11:59:27.552Z,8.47
2018-08-23T12:01:54.734Z,9.13
2018-08-23T12:04:21.883Z,7.87
2018-08-23T12:06:53.674Z,9.53
2018-08-23T12:09:25.713Z,11.93
2018-08-23T12:11:52.862Z,10.50
2018-08-23T12:14:20.022Z,8.97
2018-08-23T12:16:47.181Z,8.30
2018-08-23T12:19:14.318Z,9.87
2018-08-23T12:21:41.482Z,7.50
2018-08-23T12:24:08.606Z,9.17
2018-08-23T12:26:35.726Z,6.40
2018-08-23T12:29:08.203Z,11.00
2018-08-23T12:31:35.644Z,8.90
2018-08-23T12:34:02.906Z,8.73
2018-08-23T12:36:35.818Z,8.20
2018-08-23T12:39:09.350Z,7.23
2018-08-23T12:41:42.713Z,8.93
2018-08-23T12:44:09.874Z,6.53
2018-08-23T12:46:37.004Z,5.97
2018-08-23T12:49:04.123Z,5.47
2018-08-23T12:51:31.235Z,6.37
2018-08-23T12:53:58.367Z,6.13
2018-08-23T12:56:25.580Z,13.57
2018-08-23T12:58:52.598Z,5.00
2018-08-23T13:01:19.734Z,5.93
2018-08-23T13:03:46.786Z,7.70
2018-08-23T13:06:13.845Z,8.03
2018-08-23T13:08:40.957Z,8.07
2018-08-23T13:11:12.206Z,7.83
2018-08-23T13:13:39.189Z,7.20
2018-08-23T13:16:06.279Z,5.27
2018-08-23T13:18:33.374Z,5.13
2018-08-23T13:21:00.466Z,6.53
2018-08-23T13:23:27.615Z,4.23
2018-08-23T13:25:55.776Z,3.70
2018-08-23T13:28:27.737Z,6.40
2018-08-23T13:30:54.883Z,12.17
2018-08-23T13:33:22.667Z,6.90
2018-08-23T13:35:49.789Z,5.97
2018-08-23T13:38:17.099Z,7.83
2018-08-23T13:40:44.184Z,6.10
2018-08-23T13:43:11.261Z,6.93
2018-08-23T13:45:47.182Z,4.70
2018-08-23T13:48:14.272Z,7.10
2018-08-23T13:50:41.349Z,3.60
2018-08-23T13:53:08.445Z,2.33
2018-08-23T13:55:35.535Z,3.50
2018-08-23T13:58:02.617Z,2.23
2018-08-23T14:00:39.045Z,1.87
2018-08-23T14:03:06.973Z,4.57
2018-08-23T14:05:34.488Z,2.57
2018-08-23T14:08:01.598Z,4.60
2018-08-23T14:10:28.685Z,3.60
2018-08-23T14:12:55.834Z,1.83
2018-08-23T14:15:28.598Z,2.27
2018-08-23T14:17:55.703Z,2.30
2018-08-23T14:20:22.792Z,2.80
2018-08-23T14:22:49.864Z,2.60
2018-08-23T14:25:17.038Z,4.17
2018-08-23T14:27:44.142Z,3.90
2018-08-23T14:30:11.235Z,6.83
2018-08-23T14:32:38.336Z,2.93
2018-08-23T14:35:05.490Z,6.70
2018-08-23T14:37:34.622Z,2.30
2018-08-23T14:40:01.786Z,3.03
2018-08-23T14:42:28.834Z,1.63
2018-08-23T14:44:55.927Z,3.47
2018-08-23T14:47:28.773Z,3.70
2018-08-23T14:49:55.873Z,2.33
2018-08-23T14:52:22.966Z,3.63
2018-08-23T14:54:50.082Z,6.57
2018-08-23T14:57:22.846Z,1.73
2018-08-23T14:59:49.946Z,2.13
2018-08-23T15:02:17.026Z,2.10
2018-08-23T15:04:46.536Z,1.40
2018-08-23T15:07:13.783Z,2.93
2018-08-23T15:09:40.948Z,3.40
2018-08-23T15:12:08.109Z,2.00
2018-08-23T15:14:35.229Z,1.53
2018-08-23T15:17:02.385Z,3.63
2018-08-23T15:19:29.493Z,3.37
2018-08-23T15:21:56.915Z,2.63
2018-08-23T15:24:24.009Z,1.53
2018-08-23T15:26:51.219Z,3.53
2018-08-23T15:29:18.244Z,2.33
2018-08-23T15:31:45.526Z,3.97
2018-08-23T15:34:12.607Z,2.97
2018-08-23T15:36:39.753Z,3.67
2018-08-23T15:39:11.081Z,3.67
2018-08-23T15:41:38.908Z,6.40
2018-08-23T15:44:06.222Z,5.40
2018-08-23T15:46:39.030Z,9.17
2018-08-23T15:49:06.362Z,3.40
2018-08-23T15:51:33.462Z,1.87
2018-08-23T15:54:00.541Z,1.83
2018-08-23T15:56:27.622Z,3.57
2018-08-23T15:58:54.716Z,3.20
2018-08-23T16:01:21.813Z,5.73
2018-08-23T16:03:48.893Z,4.87
2018-08-23T16:06:15.983Z,3.00
2018-08-23T16:08:49.181Z,3.43
2018-08-23T16:11:16.278Z,3.50
2018-08-23T16:13:43.385Z,3.97
2018-08-23T16:16:16.377Z,7.23
2018-08-23T16:18:49.190Z,6.07
2018-08-23T16:21:20.897Z,4.30
2018-08-23T16:23:48.712Z,3.30
2018-08-23T16:26:15.818Z,2.87
2018-08-23T16:28:42.910Z,1.93
2018-08-23T16:31:10.106Z,8.27
2018-08-23T16:33:37.197Z,19.07
2018-08-23T16:36:04.291Z,4.50
2018-08-23T16:38:31.370Z,3.40
2018-08-23T16:41:00.495Z,1.97
2018-08-23T16:43:27.607Z,3.40
2018-08-23T16:45:54.658Z,4.00
2018-08-23T16:48:21.749Z,2.80
2018-08-23T16:50:48.833Z,3.73
2018-08-23T16:53:16.041Z,3.73
2018-08-23T16:55:43.065Z,3.23
2018-08-23T16:58:10.186Z,3.70
2018-08-23T17:00:37.270Z,4.67
2018-08-23T17:03:04.615Z,4.27
2018-08-23T17:05:31.699Z,2.87
2018-08-23T17:07:58.778Z,4.17
2018-08-23T17:10:25.889Z,5.43
2018-08-23T17:12:53.005Z,5.63
2018-08-23T17:15:20.109Z,4.67
2018-08-23T17:17:53.010Z,5.77
2018-08-23T17:20:20.159Z,4.23
2018-08-23T17:22:47.422Z,3.20
2018-08-23T17:25:14.597Z,5.90
2018-08-23T17:27:41.606Z,4.13
2018-08-23T17:30:08.722Z,3.57
2018-08-23T17:32:35.806Z,7.60
2018-08-23T17:35:02.891Z,4.23
2018-08-23T17:37:31.986Z,5.07
2018-08-23T17:39:59.079Z,5.43
2018-08-23T17:42:31.793Z,3.00
2018-08-23T17:44:58.873Z,4.47
2018-08-23T17:47:25.979Z,6.60
2018-08-23T17:49:53.081Z,5.93
2018-08-23T17:52:20.189Z,8.10
2018-08-23T17:54:47.262Z,2.27
2018-08-23T17:57:14.357Z,4.30
2018-08-23T17:59:41.495Z,5.83
2018-08-23T18:02:08.565Z,5.10
2018-08-23T18:04:35.671Z,2.97
2018-08-23T18:07:02.757Z,3.73
2018-08-23T18:09:31.549Z,9.40
2018-08-23T18:11:58.705Z,2.10
2018-08-23T18:14:25.789Z,7.60
2018-08-23T18:16:57.811Z,4.33
2018-08-23T18:19:27.094Z,10.80
2018-08-23T18:21:54.237Z,2.30
2018-08-23T18:24:21.457Z,3.33
2018-08-23T18:26:48.670Z,6.30
2018-08-23T18:29:15.787Z,6.43
2018-08-23T18:31:42.894Z,5.20
2018-08-23T18:34:14.114Z,2.63
2018-08-23T18:36:41.265Z,15.00
2018-08-23T18:39:09.226Z,1.93
2018-08-23T18:41:36.390Z,2.23
2018-08-23T18:44:03.595Z,0.80
2018-08-23T18:46:30.738Z,0.60
2018-08-23T18:48:58.969Z,0.50
2018-08-23T18:51:27.246Z,0.70
2018-08-23T18:53:54.953Z,2.17
2018-08-23T18:56:22.074Z,0.50
2018-08-23T18:58:49.430Z,4.27
2018-08-23T19:01:16.860Z,2.67
2018-08-23T19:03:44.033Z,3.40
2018-08-23T19:06:11.189Z,1.03
2018-08-23T19:08:38.329Z,4.17
2018-08-23T19:11:06.419Z,0.20
2018-08-23T19:13:33.640Z,0.50
2018-08-23T19:16:06.727Z,4.47
2018-08-23T19:18:33.886Z,0.60
2018-08-23T19:21:01.015Z,4.93
2018-08-23T19:23:28.153Z,1.00
2018-08-23T19:25:55.346Z,2.80
2018-08-23T19:28:22.454Z,5.53
2018-08-23T19:30:49.646Z,0.87
2018-08-23T19:33:16.770Z,1.80
2018-08-23T19:35:43.929Z,1.30
2018-08-23T19:38:11.078Z,1.93
2018-08-23T19:40:38.256Z,2.13
2018-08-23T19:43:05.754Z,2.30
2018-08-23T19:45:38.584Z,0.80
2018-08-23T19:48:05.843Z,0.60
2018-08-23T19:50:32.917Z,2.60
2018-08-23T19:53:00.033Z,0.80
2018-08-23T19:55:27.334Z,1.37
2018-08-23T19:57:54.442Z,1.13
2018-08-23T20:00:21.662Z,2.13
2018-08-23T20:02:49.004Z,5.93
2018-08-23T20:05:16.117Z,3.47
2018-08-23T20:07:43.222Z,3.47
2018-08-23T20:10:10.365Z,2.10
2018-08-23T20:12:37.468Z,2.77
2018-08-23T20:15:04.616Z,3.33
2018-08-23T20:17:31.781Z,1.03
2018-08-23T20:20:02.990Z,1.50
2018-08-23T20:22:30.117Z,3.13
2018-08-23T20:24:57.276Z,3.93
2018-08-23T20:27:24.406Z,2.90
2018-08-23T20:29:51.539Z,5.80
2018-08-23T20:32:18.716Z,3.13
2018-08-23T20:34:45.815Z,4.27
2018-08-23T20:37:12.953Z,1.33
2018-08-23T20:39:40.141Z,3.87
2018-08-23T20:42:07.216Z,1.73
2018-08-23T20:44:34.451Z,0.90
2018-08-23T20:47:02.116Z,4.20
2018-08-23T20:49:29.194Z,1.03
2018-08-23T20:51:56.338Z,3.47
2018-08-23T20:54:23.466Z,2.20
2018-08-23T20:56:50.614Z,1.37
2018-08-23T20:59:17.735Z,1.90
2018-08-23T21:01:45.137Z,1.30
2018-08-23T21:04:12.296Z,1.00
2018-08-23T21:06:39.385Z,0.97
2018-08-23T21:09:10.358Z,2.70
2018-08-23T21:11:38.031Z,2.70
2018-08-23T21:14:05.182Z,2.53
2018-08-23T21:16:32.584Z,4.70
2018-08-23T21:18:59.706Z,3.93
2018-08-23T21:21:26.861Z,1.60
2018-08-23T21:23:54.270Z,1.00
2018-08-23T21:26:21.402Z,3.17
2018-08-23T21:28:48.566Z,1.50
2018-08-23T21:31:16.032Z,1.93
2018-08-23T21:33:43.162Z,1.87
2018-08-23T21:36:10.285Z,1.40
2018-08-23T21:38:37.440Z,1.57
2018-08-23T21:41:04.617Z,2.60
2018-08-23T21:43:31.794Z,3.23
2018-08-23T21:45:58.930Z,2.97
2018-08-23T21:48:26.111Z,2.53
2018-08-23T21:50:53.263Z,3.97
2018-08-23T21:53:20.369Z,3.70
2018-08-23T21:55:47.481Z,2.40
2018-08-23T21:58:14.669Z,6.80
2018-08-23T22:00:47.540Z,5.23
2018-08-23T22:03:14.688Z,3.93
2018-08-23T22:05:42.320Z,3.87
2018-08-23T22:08:10.214Z,3.60
2018-08-23T22:10:37.562Z,6.30
2018-08-23T22:13:04.903Z,3.07
2018-08-23T22:15:32.040Z,3.33
2018-08-23T22:17:59.175Z,3.87
2018-08-23T22:20:26.307Z,3.80
2018-08-23T22:22:53.459Z,5.70
2018-08-23T22:25:20.605Z,5.37
2018-08-23T22:27:47.802Z,4.20
2018-08-23T22:30:15.030Z,6.93
2018-08-23T22:32:42.202Z,4.77
2018-08-23T22:35:09.341Z,4.23
2018-08-23T22:37:36.507Z,5.33
2018-08-23T22:40:03.626Z,3.57
2018-08-23T22:42:30.804Z,5.07
2018-08-23T22:44:57.946Z,6.30
2018-08-23T22:47:25.093Z,4.67
2018-08-23T22:49:52.534Z,3.87
2018-08-23T22:52:19.699Z,3.57
2018-08-23T22:54:46.873Z,5.10
2018-08-23T22:57:14.029Z,5.97
2018-08-23T22:59:41.178Z,1.87
2018-08-23T23:02:08.402Z,3.40
2018-08-23T23:04:35.533Z,10.70
2018-08-23T23:07:06.523Z,2.37
2018-08-23T23:09:34.533Z,1.60
2018-08-23T23:12:01.694Z,6.37
2018-08-23T23:14:28.869Z,3.30
2018-08-23T23:16:56.047Z,3.70
2018-08-23T23:19:23.956Z,6.17
2018-08-23T23:21:51.095Z,6.40
2018-08-23T23:24:23.951Z,2.83
2018-08-23T23:26:51.195Z,2.53
2018-08-23T23:29:18.393Z,6.63
2018-08-23T23:31:45.523Z,2.27
2018-08-23T23:34:12.726Z,4.93
2018-08-23T23:36:39.899Z,3.80
2018-08-23T23:39:07.477Z,3.57
2018-08-23T23:41:34.705Z,4.10
2018-08-23T23:44:01.888Z,4.27
2018-08-23T23:46:29.013Z,3.47
2018-08-23T23:48:56.171Z,5.43
2018-08-23T23:51:23.321Z,3.47
2018-08-23T23:53:50.443Z,5.77
2018-08-23T23:56:17.623Z,3.37
2018-08-23T23:58:44.706Z,1.67
